createdAt,value
2019-05-15T00:00:40.598Z,71.98
2019-05-15T00:01:41.165Z,72.09
2019-05-15T00:02:40.568Z,72.40
2019-05-15T00:03:40.579Z,71.37
2019-05-15T00:04:40.551Z,70.85
2019-05-15T00:05:40.556Z,70.75
2019-05-15T00:06:40.532Z,71.26
2019-05-15T00:07:40.528Z,71.06
2019-05-15T00:08:40.508Z,71.26
2019-05-15T00:09:41.929Z,71.88
2019-05-15T00:10:40.481Z,72.71
2019-05-15T00:11:40.474Z,72.09
2019-05-15T00:12:40.465Z,71.98
2019-05-15T00:13:40.455Z,72.30
2019-05-15T00:14:40.460Z,71.67
2019-05-15T00:15:40.529Z,70.67
2019-05-15T00:16:40.417Z,71.92
2019-05-15T00:17:40.407Z,72.74
2019-05-15T00:18:40.402Z,74.19
2019-05-15T00:19:40.410Z,73.67
2019-05-15T00:20:40.379Z,73.54
2019-05-15T00:21:40.362Z,73.64
2019-05-15T00:22:40.352Z,73.95
2019-05-15T00:23:40.342Z,73.77
2019-05-15T00:24:40.359Z,73.74
2019-05-15T00:25:40.356Z,73.47
2019-05-15T00:26:40.322Z,73.16
2019-05-15T00:27:40.309Z,73.16
2019-05-15T00:28:40.297Z,73.36
2019-05-15T00:29:40.290Z,74.40
2019-05-15T00:30:40.265Z,73.36
2019-05-15T00:31:40.257Z,72.85
2019-05-15T00:32:40.253Z,73.05
2019-05-15T00:33:40.248Z,73.36
2019-05-15T00:34:40.241Z,73.05
2019-05-15T00:35:40.207Z,74.50
2019-05-15T00:36:40.198Z,73.77
2019-05-15T00:37:40.191Z,73.16
2019-05-15T00:38:40.189Z,73.57
2019-05-15T00:39:40.180Z,72.47
2019-05-15T00:40:40.161Z,71.92
2019-05-15T00:41:50.372Z,72.22
2019-05-15T00:42:41.144Z,72.26
2019-05-15T00:43:40.134Z,71.74
2019-05-15T00:44:40.135Z,72.36
2019-05-15T00:45:40.106Z,73.08
2019-05-15T00:46:40.093Z,73.29
2019-05-15T00:47:40.076Z,75.15
2019-05-15T00:48:40.134Z,74.84
2019-05-15T00:49:40.076Z,75.05
2019-05-15T00:50:40.061Z,74.63
2019-05-15T00:51:40.043Z,74.63
2019-05-15T00:52:40.021Z,74.74
2019-05-15T00:53:40.010Z,74.43
2019-05-15T00:54:40.021Z,73.64
2019-05-15T00:55:39.996Z,74.43
2019-05-15T00:56:39.986Z,75.60
2019-05-15T00:57:39.975Z,75.36
2019-05-15T00:58:40.364Z,74.36
2019-05-15T00:59:39.969Z,74.98
2019-05-15T01:00:39.934Z,75.57
2019-05-15T01:01:39.943Z,74.88
2019-05-15T01:02:39.917Z,75.50
2019-05-15T01:03:39.907Z,76.01
2019-05-15T01:04:39.900Z,75.50
2019-05-15T01:05:39.905Z,74.40
2019-05-15T01:06:39.880Z,74.26
2019-05-15T01:07:39.875Z,74.05
2019-05-15T01:08:39.863Z,73.98
2019-05-15T01:09:39.845Z,74.29
2019-05-15T01:10:39.853Z,74.50
2019-05-15T01:11:39.818Z,75.43
2019-05-15T01:12:39.817Z,76.19
2019-05-15T01:13:39.798Z,75.98
2019-05-15T01:14:39.797Z,77.12
2019-05-15T01:15:42.802Z,76.46
2019-05-15T01:16:39.771Z,76.57
2019-05-15T01:17:39.760Z,76.67
2019-05-15T01:18:39.755Z,76.26
2019-05-15T01:19:39.742Z,75.53
2019-05-15T01:20:39.737Z,76.40
2019-05-15T01:21:39.723Z,76.09
2019-05-15T01:22:39.760Z,75.26
2019-05-15T01:23:39.700Z,75.36
2019-05-15T01:24:39.694Z,76.71
2019-05-15T01:25:39.685Z,78.78
2019-05-15T01:26:39.663Z,77.74
2019-05-15T01:27:39.652Z,77.22
2019-05-15T01:28:39.646Z,76.91
2019-05-15T01:29:44.854Z,76.29
2019-05-15T01:30:40.784Z,76.09
2019-05-15T01:31:39.605Z,75.98
2019-05-15T01:32:39.863Z,75.26
2019-05-15T01:33:39.587Z,76.91
2019-05-15T01:34:39.571Z,78.88
2019-05-15T01:35:39.584Z,78.40
2019-05-15T01:36:39.563Z,77.26
2019-05-15T01:37:39.537Z,76.64
2019-05-15T01:38:39.536Z,76.74
2019-05-15T01:39:39.521Z,78.81
2019-05-15T01:40:39.532Z,78.92
2019-05-15T01:41:39.504Z,79.54
2019-05-15T01:42:39.488Z,78.61
2019-05-15T01:43:39.486Z,78.61
2019-05-15T01:44:39.462Z,78.71
2019-05-15T01:45:39.780Z,78.61
2019-05-15T01:46:39.532Z,76.98
2019-05-15T01:47:39.451Z,77.40
2019-05-15T01:48:39.426Z,77.19
2019-05-15T01:49:39.415Z,76.78
2019-05-15T01:50:39.428Z,76.46
2019-05-15T01:51:39.390Z,77.12
2019-05-15T01:52:39.405Z,76.67
2019-05-15T01:53:39.377Z,76.78
2019-05-15T01:54:39.364Z,77.19
2019-05-15T01:55:39.792Z,77.44
2019-05-15T01:56:39.351Z,78.78
2019-05-15T01:57:39.363Z,78.64
2019-05-15T01:58:39.338Z,79.37
2019-05-15T01:59:52.794Z,79.47
2019-05-15T02:00:40.297Z,78.75
2019-05-15T02:01:39.430Z,78.96
2019-05-15T02:02:39.392Z,80.09
2019-05-15T02:03:39.266Z,81.75
2019-05-15T02:04:39.451Z,81.13
2019-05-15T02:05:39.414Z,79.92
2019-05-15T02:06:39.320Z,79.47
2019-05-15T02:07:39.408Z,80.23
2019-05-15T02:08:39.596Z,79.16
2019-05-15T02:09:39.193Z,79.06
2019-05-15T02:10:39.529Z,79.06
2019-05-15T02:11:39.196Z,79.44
2019-05-15T02:12:39.250Z,80.36
2019-05-15T02:13:39.213Z,80.51
2019-05-15T02:14:39.356Z,79.88
2019-05-15T02:15:39.783Z,79.06
2019-05-15T02:16:39.481Z,78.54
2019-05-15T02:17:39.584Z,78.75
2019-05-15T02:18:39.443Z,78.54
2019-05-15T02:19:39.309Z,79.16
2019-05-15T02:20:39.316Z,78.85
2019-05-15T02:21:39.091Z,79.27
2019-05-15T02:22:42.585Z,80.09
2019-05-15T02:23:39.054Z,81.58
2019-05-15T02:24:39.258Z,80.82
2019-05-15T02:25:39.112Z,79.78
2019-05-15T02:26:39.063Z,79.61
2019-05-15T02:27:39.571Z,80.30
2019-05-15T02:28:38.997Z,80.96
2019-05-15T02:29:38.982Z,81.27
2019-05-15T02:30:40.206Z,79.82
2019-05-15T02:31:39.401Z,79.82
2019-05-15T02:32:39.734Z,79.82
2019-05-15T02:33:40.122Z,80.54
2019-05-15T02:34:39.716Z,81.27
2019-05-15T02:35:39.603Z,81.37
2019-05-15T02:36:40.040Z,81.48
2019-05-15T02:37:41.103Z,81.16
2019-05-15T02:38:41.060Z,81.16
2019-05-15T02:39:39.163Z,81.27
2019-05-15T02:40:40.437Z,80.75
2019-05-15T02:41:39.675Z,81.27
2019-05-15T02:42:39.992Z,81.06
2019-05-15T02:43:39.332Z,81.27
2019-05-15T02:44:40.001Z,81.62
2019-05-15T02:45:42.137Z,81.79
2019-05-15T02:46:39.305Z,81.30
2019-05-15T02:47:39.609Z,82.86
2019-05-15T02:48:41.078Z,83.48
2019-05-15T02:49:39.625Z,83.69
2019-05-15T02:50:39.354Z,82.65
2019-05-15T02:51:39.846Z,81.20
2019-05-15T02:52:40.702Z,82.14
2019-05-15T02:53:40.009Z,83.28
2019-05-15T02:54:40.023Z,82.24
2019-05-15T02:55:40.273Z,83.07
2019-05-15T02:56:39.457Z,82.45
2019-05-15T02:57:39.632Z,82.14
2019-05-15T02:58:39.858Z,82.24
2019-05-15T02:59:39.577Z,82.59
2019-05-15T03:00:47.761Z,83.17
2019-05-15T03:01:40.674Z,82.86
2019-05-15T03:02:41.220Z,82.18
2019-05-15T03:03:39.192Z,82.80
2019-05-15T03:04:40.017Z,82.70
2019-05-15T03:05:40.656Z,82.28
2019-05-15T03:06:39.142Z,82.24
2019-05-15T03:07:40.161Z,82.34
2019-05-15T03:08:39.868Z,82.14
2019-05-15T03:09:39.951Z,82.45
2019-05-15T03:10:40.732Z,83.59
2019-05-15T03:11:40.842Z,83.07
2019-05-15T03:12:40.799Z,81.30
2019-05-15T03:13:39.238Z,81.72
2019-05-15T03:14:39.985Z,81.24
2019-05-15T03:15:40.298Z,81.30
2019-05-15T03:16:39.385Z,81.97
2019-05-15T03:17:40.209Z,82.59
2019-05-15T03:18:39.802Z,83.42
2019-05-15T03:19:39.474Z,82.76
2019-05-15T03:20:38.960Z,82.39
2019-05-15T03:21:38.963Z,82.80
2019-05-15T03:22:39.990Z,83.11
2019-05-15T03:23:40.410Z,83.84
2019-05-15T03:24:39.709Z,84.46
2019-05-15T03:25:40.523Z,83.32
2019-05-15T03:26:39.378Z,83.04
2019-05-15T03:27:39.448Z,83.36
2019-05-15T03:28:39.441Z,83.87
2019-05-15T03:29:40.445Z,83.15
2019-05-15T03:31:07.109Z,82.39
2019-05-15T03:31:52.851Z,82.63
2019-05-15T03:32:50.635Z,83.22
2019-05-15T03:33:46.018Z,83.94
2019-05-15T03:34:46.706Z,82.84
2019-05-15T03:35:42.814Z,82.49
2019-05-15T03:36:44.832Z,82.84
2019-05-15T03:37:39.931Z,82.53
2019-05-15T03:38:39.410Z,81.70
2019-05-15T03:39:39.262Z,81.18
2019-05-15T03:40:39.670Z,82.32
2019-05-15T03:41:39.246Z,83.87
2019-05-15T03:42:39.380Z,82.42
2019-05-15T03:43:39.355Z,82.53
2019-05-15T03:44:39.353Z,83.04
2019-05-15T03:45:40.557Z,82.73
2019-05-15T03:46:39.800Z,82.21
2019-05-15T03:47:40.205Z,82.63
2019-05-15T03:48:40.218Z,82.63
2019-05-15T03:49:39.802Z,83.25
2019-05-15T03:50:40.117Z,84.15
2019-05-15T03:51:42.355Z,83.25
2019-05-15T03:52:39.879Z,82.11
2019-05-15T03:53:39.928Z,83.36
2019-05-15T03:54:39.204Z,83.87
2019-05-15T03:55:40.430Z,83.36
2019-05-15T03:56:39.321Z,82.49
2019-05-15T03:57:40.128Z,83.73
2019-05-15T03:58:40.172Z,83.42
2019-05-15T03:59:39.962Z,82.94
2019-05-15T04:00:39.470Z,82.11
2019-05-15T04:01:43.284Z,81.90
2019-05-15T04:02:39.835Z,81.59
2019-05-15T04:03:38.998Z,82.11
2019-05-15T04:04:38.838Z,81.18
2019-05-15T04:05:39.005Z,81.38
2019-05-15T04:06:39.110Z,82.42
2019-05-15T04:07:39.786Z,82.63
2019-05-15T04:08:39.190Z,82.28
2019-05-15T04:09:38.670Z,81.66
2019-05-15T04:10:40.006Z,81.30
2019-05-15T04:11:38.833Z,81.30
2019-05-15T04:12:40.329Z,81.41
2019-05-15T04:13:39.813Z,81.68
2019-05-15T04:14:39.475Z,81.16
2019-05-15T04:15:39.543Z,80.23
2019-05-15T04:16:39.108Z,81.27
2019-05-15T04:17:40.189Z,80.65
2019-05-15T04:18:39.663Z,81.16
2019-05-15T04:19:39.126Z,80.65
2019-05-15T04:20:40.409Z,80.71
2019-05-15T04:21:43.632Z,79.99
2019-05-15T04:22:40.080Z,79.47
2019-05-15T04:23:39.161Z,81.23
2019-05-15T04:24:39.567Z,80.51
2019-05-15T04:25:39.184Z,79.58
2019-05-15T04:26:39.464Z,79.74
2019-05-15T04:27:39.044Z,79.33
2019-05-15T04:28:41.284Z,79.23
2019-05-15T04:29:39.770Z,78.78
2019-05-15T04:30:39.311Z,78.47
2019-05-15T04:31:51.640Z,78.57
2019-05-15T04:32:39.928Z,78.47
2019-05-15T04:33:39.981Z,77.29
2019-05-15T04:34:39.667Z,77.91
2019-05-15T04:35:40.237Z,77.91
2019-05-15T04:36:39.585Z,77.05
2019-05-15T04:37:40.747Z,76.74
2019-05-15T04:38:39.320Z,76.43
2019-05-15T04:39:40.011Z,76.39
2019-05-15T04:40:39.647Z,76.70
2019-05-15T04:41:39.314Z,77.01
2019-05-15T04:42:39.751Z,75.74
2019-05-15T04:43:44.131Z,76.46
2019-05-15T04:44:39.541Z,74.46
2019-05-15T04:45:39.248Z,74.57
2019-05-15T04:46:39.159Z,73.91
2019-05-15T04:47:39.647Z,73.57
2019-05-15T04:48:39.833Z,73.47
2019-05-15T04:49:39.417Z,71.78
2019-05-15T04:50:39.860Z,70.41
2019-05-15T04:51:39.150Z,69.38
2019-05-15T04:52:42.505Z,67.88
2019-05-15T04:53:39.500Z,66.25
2019-05-15T04:54:40.149Z,63.31
2019-05-15T04:55:40.232Z,60.35
2019-05-15T04:56:39.966Z,60.42
2019-05-15T04:57:40.025Z,60.37
2019-05-15T04:58:39.410Z,60.14
2019-05-15T04:59:39.056Z,59.37
2019-05-15T05:00:39.829Z,57.70
2019-05-15T05:01:40.219Z,57.57
2019-05-15T05:02:40.078Z,56.71
2019-05-15T05:03:39.266Z,57.01
2019-05-15T05:04:38.700Z,56.78
2019-05-15T05:05:38.831Z,56.45
2019-05-15T05:06:38.704Z,55.20
2019-05-15T05:07:38.989Z,55.74
2019-05-15T05:08:39.720Z,56.52
2019-05-15T05:09:38.977Z,56.42
2019-05-15T05:10:39.583Z,55.02
2019-05-15T05:11:38.355Z,56.04
2019-05-15T05:12:41.365Z,56.81
2019-05-15T05:13:39.303Z,57.21
2019-05-15T05:14:39.091Z,56.99
2019-05-15T05:15:38.911Z,55.63
2019-05-15T05:16:39.311Z,54.92
2019-05-15T05:17:39.213Z,55.30
2019-05-15T05:18:41.368Z,54.28
2019-05-15T05:19:40.072Z,54.05
2019-05-15T05:20:38.209Z,53.72
2019-05-15T05:21:38.520Z,53.09
2019-05-15T05:22:39.264Z,53.17
2019-05-15T05:23:37.762Z,52.86
2019-05-15T05:24:38.491Z,52.37
2019-05-15T05:25:38.803Z,52.35
2019-05-15T05:26:38.244Z,52.25
2019-05-15T05:27:38.438Z,52.28
2019-05-15T05:28:37.941Z,52.05
2019-05-15T05:29:38.622Z,51.95
2019-05-15T05:30:38.572Z,52.33
2019-05-15T05:31:39.098Z,52.00
2019-05-15T05:32:39.050Z,52.83
2019-05-15T05:33:38.102Z,53.88
2019-05-15T05:34:39.203Z,53.65
2019-05-15T05:35:38.742Z,52.81
2019-05-15T05:36:38.590Z,52.48
2019-05-15T05:37:39.104Z,51.31
2019-05-15T05:38:38.724Z,50.58
2019-05-15T05:39:39.271Z,50.04
2019-05-15T05:40:38.485Z,48.76
2019-05-15T05:41:39.185Z,48.03
2019-05-15T05:42:39.028Z,46.61
2019-05-15T05:43:38.415Z,46.69
2019-05-15T05:44:38.658Z,47.17
2019-05-15T05:45:38.299Z,45.43
2019-05-15T05:46:36.896Z,45.63
2019-05-15T05:47:38.197Z,45.00
2019-05-15T05:48:38.351Z,44.58
2019-05-15T05:49:38.180Z,45.18
2019-05-15T05:50:38.503Z,43.95
2019-05-15T05:51:38.744Z,44.76
2019-05-15T05:52:39.132Z,43.73
2019-05-15T05:53:38.311Z,43.91
2019-05-15T05:54:38.297Z,42.46
2019-05-15T05:55:38.473Z,41.75
2019-05-15T05:56:37.794Z,41.59
2019-05-15T05:57:38.316Z,43.93
2019-05-15T05:58:38.958Z,44.92
2019-05-15T05:59:38.688Z,46.06
2019-05-15T06:00:39.187Z,46.35
2019-05-15T06:01:43.570Z,47.24
2019-05-15T06:02:46.959Z,46.91
2019-05-15T06:03:38.611Z,46.38
2019-05-15T06:04:38.456Z,46.18
2019-05-15T06:05:38.748Z,47.19
2019-05-15T06:06:38.471Z,47.18
2019-05-15T06:07:38.773Z,48.93
2019-05-15T06:08:38.912Z,49.26
2019-05-15T06:09:38.060Z,50.35
2019-05-15T06:10:38.661Z,48.44
2019-05-15T06:11:38.107Z,50.93
2019-05-15T06:12:38.993Z,49.06
2019-05-15T06:13:38.296Z,46.51
2019-05-15T06:14:37.994Z,47.95
2019-05-15T06:15:37.899Z,46.51
2019-05-15T06:16:38.559Z,46.34
2019-05-15T06:17:38.793Z,44.84
2019-05-15T06:18:38.740Z,43.43
2019-05-15T06:19:38.622Z,43.79
2019-05-15T06:20:36.626Z,41.30
2019-05-15T06:21:39.216Z,41.50
2019-05-15T06:22:38.823Z,43.73
2019-05-15T06:23:38.455Z,43.87
2019-05-15T06:24:37.976Z,46.53
2019-05-15T06:25:38.924Z,47.06
2019-05-15T06:26:38.477Z,47.45
2019-05-15T06:27:38.688Z,46.25
2019-05-15T06:28:39.144Z,46.94
2019-05-15T06:29:37.797Z,48.97
2019-05-15T06:30:38.644Z,46.95
2019-05-15T06:31:38.667Z,46.67
2019-05-15T06:32:39.466Z,45.11
2019-05-15T06:33:38.357Z,46.17
2019-05-15T06:34:38.022Z,47.34
2019-05-15T06:35:36.408Z,44.70
2019-05-15T06:36:36.379Z,46.41
2019-05-15T06:37:36.371Z,44.44
2019-05-15T06:38:36.368Z,44.12
2019-05-15T06:39:36.365Z,42.74
2019-05-15T06:40:36.357Z,41.30
2019-05-15T06:41:38.826Z,43.10
2019-05-15T06:42:38.934Z,41.87
2019-05-15T06:43:38.644Z,43.29
2019-05-15T06:44:38.652Z,42.37
2019-05-15T06:45:38.011Z,43.24
2019-05-15T06:46:39.053Z,41.93
2019-05-15T06:47:36.281Z,41.28
2019-05-15T06:48:37.976Z,41.16
2019-05-15T06:49:37.783Z,39.61
2019-05-15T06:50:38.290Z,39.31
2019-05-15T06:51:37.917Z,39.21
2019-05-15T06:52:38.055Z,39.39
2019-05-15T06:53:38.262Z,38.69
2019-05-15T06:54:37.803Z,39.25
2019-05-15T06:55:38.620Z,39.11
2019-05-15T06:56:38.640Z,40.30
2019-05-15T06:57:36.165Z,41.64
2019-05-15T06:58:38.466Z,43.26
2019-05-15T06:59:36.153Z,42.86
2019-05-15T07:00:38.819Z,42.52
2019-05-15T07:01:38.382Z,40.86
2019-05-15T07:02:38.152Z,40.03
2019-05-15T07:03:36.112Z,39.01
2019-05-15T07:04:38.191Z,36.08
2019-05-15T07:05:38.348Z,36.35
2019-05-15T07:06:38.103Z,36.17
2019-05-15T07:07:38.615Z,35.38
2019-05-15T07:08:38.270Z,37.54
2019-05-15T07:09:37.990Z,37.64
2019-05-15T07:10:37.796Z,37.86
2019-05-15T07:11:36.015Z,36.94
2019-05-15T07:12:36.005Z,35.65
2019-05-15T07:13:38.311Z,37.89
2019-05-15T07:14:37.956Z,36.65
2019-05-15T07:15:38.215Z,37.12
2019-05-15T07:16:35.963Z,36.30
2019-05-15T07:17:35.950Z,36.59
2019-05-15T07:18:35.945Z,34.75
2019-05-15T07:19:38.917Z,35.72
2019-05-15T07:20:35.924Z,34.88
2019-05-15T07:21:38.862Z,35.61
2019-05-15T07:22:38.820Z,36.32
2019-05-15T07:23:38.415Z,34.40
2019-05-15T07:24:38.228Z,34.89
2019-05-15T07:25:38.812Z,34.94
2019-05-15T07:26:38.904Z,34.10
2019-05-15T07:27:35.902Z,32.78
2019-05-15T07:28:37.922Z,32.56
2019-05-15T07:29:35.856Z,32.87
2019-05-15T07:30:40.828Z,32.79
2019-05-15T07:31:38.365Z,32.56
2019-05-15T07:32:35.792Z,32.39
2019-05-15T07:33:42.997Z,31.00
2019-05-15T07:34:37.866Z,32.44
2019-05-15T07:35:38.263Z,30.73
2019-05-15T07:36:35.748Z,31.27
2019-05-15T07:37:35.731Z,32.47
2019-05-15T07:38:35.724Z,30.79
2019-05-15T07:39:38.059Z,29.94
2019-05-15T07:40:38.302Z,28.39
2019-05-15T07:41:35.695Z,28.35
2019-05-15T07:42:38.331Z,28.74
2019-05-15T07:43:35.672Z,27.26
2019-05-15T07:44:35.676Z,27.53
2019-05-15T07:45:35.660Z,28.31
2019-05-15T07:46:35.644Z,26.09
2019-05-15T07:47:38.314Z,25.46
2019-05-15T07:48:38.127Z,25.31
2019-05-15T07:49:35.621Z,24.66
2019-05-15T07:50:38.434Z,23.16
2019-05-15T07:51:38.004Z,23.65
2019-05-15T07:52:35.581Z,23.55
2019-05-15T07:53:38.192Z,24.28
2019-05-15T07:54:35.580Z,24.42
2019-05-15T07:55:35.556Z,23.60
2019-05-15T07:56:35.531Z,24.20
2019-05-15T07:57:35.530Z,25.09
2019-05-15T07:58:35.543Z,25.57
2019-05-15T07:59:35.510Z,24.68
2019-05-15T08:00:39.330Z,26.28
2019-05-15T08:01:35.493Z,24.61
2019-05-15T08:02:37.798Z,25.15
2019-05-15T08:03:35.497Z,24.39
2019-05-15T08:04:37.909Z,20.76
2019-05-15T08:05:38.070Z,20.79
2019-05-15T08:06:38.588Z,21.88
2019-05-15T08:07:35.442Z,20.17
2019-05-15T08:08:35.420Z,21.83
2019-05-15T08:09:35.412Z,20.87
2019-05-15T08:10:36.315Z,21.87
2019-05-15T08:11:35.403Z,21.97
2019-05-15T08:12:35.403Z,21.58
2019-05-15T08:13:35.378Z,23.67
2019-05-15T08:14:35.371Z,21.98
2019-05-15T08:15:35.372Z,22.26
2019-05-15T08:16:35.351Z,20.68
2019-05-15T08:17:35.350Z,22.12
2019-05-15T08:18:35.333Z,23.00
2019-05-15T08:19:35.323Z,21.57
2019-05-15T08:20:35.322Z,23.44
2019-05-15T08:21:35.330Z,20.95
2019-05-15T08:22:38.079Z,21.03
2019-05-15T08:23:35.288Z,20.79
2019-05-15T08:24:35.305Z,20.34
2019-05-15T08:25:36.068Z,19.71
2019-05-15T08:26:35.258Z,20.78
2019-05-15T08:27:35.249Z,22.03
2019-05-15T08:28:35.239Z,21.63
2019-05-15T08:29:35.240Z,21.54
2019-05-15T08:30:35.250Z,22.07
2019-05-15T08:31:35.226Z,22.67
2019-05-15T08:32:35.231Z,22.93
2019-05-15T08:33:35.194Z,20.67
2019-05-15T08:34:35.194Z,19.42
2019-05-15T08:35:35.209Z,19.64
2019-05-15T08:36:35.174Z,19.64
2019-05-15T08:37:35.168Z,21.40
2019-05-15T08:38:35.163Z,22.03
2019-05-15T08:39:35.149Z,23.37
2019-05-15T08:40:35.162Z,23.45
2019-05-15T08:41:35.144Z,21.85
2019-05-15T08:42:35.124Z,22.19
2019-05-15T08:43:35.112Z,23.91
2019-05-15T08:44:35.106Z,22.34
2019-05-15T08:45:35.121Z,22.81
2019-05-15T08:46:35.089Z,23.57
2019-05-15T08:47:35.075Z,22.66
2019-05-15T08:48:35.065Z,22.29
2019-05-15T08:49:35.089Z,20.86
2019-05-15T08:50:35.067Z,20.64
2019-05-15T08:51:35.062Z,21.35
2019-05-15T08:52:35.028Z,19.93
2019-05-15T08:53:35.020Z,20.20
2019-05-15T08:54:35.014Z,19.95
2019-05-15T08:55:35.026Z,20.04
2019-05-15T08:56:35.002Z,19.51
2019-05-15T08:57:35.068Z,19.06
2019-05-15T08:58:34.987Z,17.83
2019-05-15T08:59:34.981Z,17.86
2019-05-15T09:00:35.024Z,18.82
2019-05-15T09:01:34.954Z,19.13
2019-05-15T09:02:34.945Z,19.74
2019-05-15T09:03:34.938Z,19.61
2019-05-15T09:04:35.324Z,19.27
2019-05-15T09:05:34.939Z,17.56
2019-05-15T09:06:34.909Z,19.04
2019-05-15T09:07:34.904Z,18.04
2019-05-15T09:08:34.898Z,17.14
2019-05-15T09:09:34.889Z,17.88
2019-05-15T09:10:34.894Z,17.30
2019-05-15T09:11:34.869Z,18.69
2019-05-15T09:12:34.860Z,20.68
2019-05-15T09:13:34.869Z,20.60
2019-05-15T09:14:34.841Z,21.50
2019-05-15T09:15:34.864Z,19.55
2019-05-15T09:16:34.837Z,18.31
2019-05-15T09:17:34.819Z,18.57
2019-05-15T09:18:34.812Z,18.90
2019-05-15T09:19:34.801Z,19.94
2019-05-15T09:20:34.795Z,20.84
2019-05-15T09:21:34.829Z,19.15
2019-05-15T09:22:34.793Z,18.99
2019-05-15T09:23:34.761Z,19.05
2019-05-15T09:24:34.761Z,18.94
2019-05-15T09:25:34.768Z,19.10
2019-05-15T09:26:35.573Z,18.34
2019-05-15T09:27:34.732Z,16.46
2019-05-15T09:28:34.725Z,14.75
2019-05-15T09:29:34.720Z,14.14
2019-05-15T09:30:34.704Z,13.95
2019-05-15T09:31:34.707Z,14.70
2019-05-15T09:32:34.682Z,14.65
2019-05-15T09:33:34.676Z,16.27
2019-05-15T09:34:47.785Z,16.52
2019-05-15T09:35:35.660Z,15.91
2019-05-15T09:36:34.668Z,15.80
2019-05-15T09:37:34.637Z,16.09
2019-05-15T09:38:34.646Z,16.71
2019-05-15T09:39:34.626Z,17.48
2019-05-15T09:40:45.188Z,16.71
2019-05-15T09:41:38.018Z,14.20
2019-05-15T09:42:34.625Z,14.19
2019-05-15T09:43:34.587Z,15.21
2019-05-15T09:44:34.587Z,14.75
2019-05-15T09:45:34.572Z,15.92
2019-05-15T09:46:34.576Z,14.39
2019-05-15T09:47:34.559Z,13.57
2019-05-15T09:48:34.552Z,13.64
2019-05-15T09:49:34.540Z,14.66
2019-05-15T09:50:34.532Z,14.15
2019-05-15T09:51:34.532Z,13.78
2019-05-15T09:52:34.505Z,13.76
2019-05-15T09:53:34.502Z,14.88
2019-05-15T09:54:34.521Z,14.83
2019-05-15T09:55:34.485Z,14.80
2019-05-15T09:56:34.483Z,13.05
2019-05-15T09:57:34.461Z,14.83
2019-05-15T09:58:34.454Z,14.24
2019-05-15T09:59:34.451Z,14.98
2019-05-15T10:00:34.444Z,15.00
2019-05-15T10:01:34.455Z,16.15
2019-05-15T10:02:34.422Z,15.62
2019-05-15T10:03:34.410Z,14.53
2019-05-15T10:04:34.426Z,15.50
2019-05-15T10:05:34.387Z,13.23
2019-05-15T10:06:34.402Z,14.65
2019-05-15T10:07:34.399Z,14.86
2019-05-15T10:08:34.373Z,14.09
2019-05-15T10:09:34.350Z,14.99
2019-05-15T10:10:34.349Z,14.97
2019-05-15T10:11:34.371Z,14.87
2019-05-15T10:12:35.263Z,14.48
2019-05-15T10:13:34.323Z,13.70
2019-05-15T10:14:34.331Z,14.75
2019-05-15T10:15:34.318Z,13.55
2019-05-15T10:16:34.287Z,13.78
2019-05-15T10:17:34.311Z,14.80
2019-05-15T10:18:34.266Z,14.90
2019-05-15T10:19:34.266Z,14.00
2019-05-15T10:20:34.255Z,14.88
2019-05-15T10:21:34.244Z,17.16
2019-05-15T10:22:34.249Z,15.05
2019-05-15T10:23:34.230Z,14.85
2019-05-15T10:24:34.211Z,15.66
2019-05-15T10:25:34.211Z,15.27
2019-05-15T10:26:34.199Z,15.89
2019-05-15T10:27:34.213Z,17.21
2019-05-15T10:28:34.181Z,18.32
2019-05-15T10:29:34.160Z,17.28
2019-05-15T10:30:34.154Z,18.92
2019-05-15T10:31:34.149Z,20.45
2019-05-15T10:32:34.157Z,21.37
2019-05-15T10:33:34.133Z,21.06
2019-05-15T10:34:34.117Z,20.47
2019-05-15T10:35:34.104Z,20.89
2019-05-15T10:36:34.097Z,24.80
2019-05-15T10:37:34.121Z,20.29
2019-05-15T10:38:34.075Z,20.92
2019-05-15T10:39:34.071Z,20.73
2019-05-15T10:40:34.070Z,22.28
2019-05-15T10:41:34.041Z,22.98
2019-05-15T10:42:34.050Z,22.58
2019-05-15T10:43:34.075Z,22.58
2019-05-15T10:44:34.024Z,23.47
2019-05-15T10:45:34.009Z,23.46
2019-05-15T10:46:33.993Z,24.17
2019-05-15T10:47:34.015Z,22.27
2019-05-15T10:48:33.967Z,24.30
2019-05-15T10:49:33.956Z,25.41
2019-05-15T10:50:33.949Z,25.41
2019-05-15T10:51:33.941Z,25.41
2019-05-15T10:52:33.947Z,25.21
2019-05-15T10:53:33.924Z,25.01
2019-05-15T10:54:33.909Z,25.65
2019-05-15T10:55:33.906Z,28.29
2019-05-15T10:56:33.889Z,28.28
2019-05-15T10:57:33.908Z,26.95
2019-05-15T10:58:33.867Z,26.98
2019-05-15T10:59:33.852Z,28.00
2019-05-15T11:00:33.849Z,27.80
2019-05-15T11:01:33.829Z,27.98
2019-05-15T11:02:33.841Z,28.49
2019-05-15T11:03:35.104Z,27.89
2019-05-15T11:04:33.806Z,26.47
2019-05-15T11:05:44.661Z,27.78
2019-05-15T11:06:34.788Z,27.19
2019-05-15T11:07:33.784Z,27.18
2019-05-15T11:08:33.759Z,26.48
2019-05-15T11:09:33.742Z,28.00
2019-05-15T11:10:33.734Z,29.21
2019-05-15T11:11:33.739Z,28.91
2019-05-15T11:12:33.869Z,27.39
2019-05-15T11:13:33.702Z,26.29
2019-05-15T11:14:33.695Z,26.89
2019-05-15T11:15:33.683Z,29.21
2019-05-15T11:16:33.677Z,29.79
2019-05-15T11:17:33.686Z,25.34
2019-05-15T11:18:33.651Z,27.05
2019-05-15T11:19:36.232Z,26.47
2019-05-15T11:20:34.623Z,28.50
2019-05-15T11:21:33.614Z,29.01
2019-05-15T11:22:33.605Z,28.20
2019-05-15T11:23:33.641Z,28.82
2019-05-15T11:24:33.587Z,28.53
2019-05-15T11:25:33.576Z,28.01
2019-05-15T11:26:33.717Z,28.24
2019-05-15T11:27:33.550Z,30.15
2019-05-15T11:28:33.556Z,31.87
2019-05-15T11:29:33.534Z,29.72
2019-05-15T11:30:33.552Z,29.22
2019-05-15T11:31:33.511Z,28.74
2019-05-15T11:32:33.496Z,29.03
2019-05-15T11:33:33.522Z,30.25
2019-05-15T11:34:33.475Z,30.24
2019-05-15T11:35:33.474Z,32.75
2019-05-15T11:36:33.460Z,30.63
2019-05-15T11:37:33.458Z,29.33
2019-05-15T11:38:33.451Z,31.35
2019-05-15T11:39:33.420Z,29.92
2019-05-15T11:40:33.406Z,30.22
2019-05-15T11:41:33.412Z,30.52
2019-05-15T11:42:33.387Z,30.51
2019-05-15T11:43:33.398Z,29.50
2019-05-15T11:44:33.370Z,29.50
2019-05-15T11:45:33.352Z,29.32
2019-05-15T11:46:33.351Z,30.52
2019-05-15T11:47:33.337Z,30.94
2019-05-15T11:48:33.339Z,30.22
2019-05-15T11:49:33.314Z,29.61
2019-05-15T11:50:33.298Z,27.38
2019-05-15T11:51:33.285Z,28.69
2019-05-15T11:52:36.388Z,30.11
2019-05-15T11:53:34.283Z,29.00
2019-05-15T11:54:33.259Z,29.50
2019-05-15T11:55:33.248Z,29.30
2019-05-15T11:56:33.457Z,29.40
2019-05-15T11:57:42.645Z,29.82
2019-05-15T11:58:34.229Z,30.91
2019-05-15T11:59:33.197Z,29.00
2019-05-15T12:00:33.184Z,30.11
2019-05-15T12:01:33.174Z,30.19
2019-05-15T12:02:33.174Z,26.98
2019-05-15T12:03:33.147Z,26.50
2019-05-15T12:04:34.237Z,27.10
2019-05-15T12:05:33.127Z,26.58
2019-05-15T12:06:33.138Z,27.90
2019-05-15T12:07:33.147Z,28.00
2019-05-15T12:08:33.097Z,29.20
2019-05-15T12:09:33.137Z,26.87
2019-05-15T12:10:33.084Z,28.81
2019-05-15T12:11:36.902Z,27.48
2019-05-15T12:12:34.051Z,31.71
2019-05-15T12:13:33.039Z,28.28
2019-05-15T12:14:33.043Z,29.99
2019-05-15T12:15:33.029Z,28.88
2019-05-15T12:16:36.160Z,30.11
2019-05-15T12:17:34.220Z,29.79
2019-05-15T12:18:32.986Z,29.50
2019-05-15T12:19:33.021Z,29.50
2019-05-15T12:20:32.969Z,30.31
2019-05-15T12:21:32.964Z,30.11
2019-05-15T12:22:32.959Z,29.52
2019-05-15T12:23:32.946Z,28.22
2019-05-15T12:24:36.691Z,29.44
2019-05-15T12:25:32.920Z,29.76
2019-05-15T12:26:33.001Z,30.66
2019-05-15T12:27:32.897Z,30.76
2019-05-15T12:28:32.888Z,31.25
2019-05-15T12:29:32.891Z,31.34
2019-05-15T12:30:32.866Z,30.91
2019-05-15T12:31:32.847Z,30.31
2019-05-15T12:33:33.829Z,31.20
2019-05-15T12:34:32.865Z,30.19
2019-05-15T12:35:32.819Z,26.27
2019-05-15T12:36:51.386Z,27.08
2019-05-15T12:37:33.786Z,27.98
2019-05-15T12:38:32.778Z,26.27
2019-05-15T12:39:32.802Z,27.90
2019-05-15T12:59:41.014Z,28.19
2019-05-15T13:00:33.564Z,26.37
2019-05-15T13:01:32.535Z,27.48
2019-05-15T13:02:32.531Z,29.00
2019-05-15T13:03:32.514Z,28.88
2019-05-15T13:04:32.517Z,27.87
2019-05-15T13:05:32.746Z,27.67
2019-05-15T13:06:45.957Z,27.06
2019-05-15T13:07:33.463Z,27.97
2019-05-15T13:08:32.458Z,26.66
2019-05-15T13:09:32.451Z,26.66
2019-05-15T13:10:32.448Z,27.05
2019-05-15T13:11:32.430Z,26.15
2019-05-15T13:12:32.416Z,28.97